createdAt,value
2018-07-04T00:00:57.987Z,58.78
2018-07-04T00:01:58.538Z,59.84
2018-07-04T00:03:05.682Z,59.65
2018-07-04T00:04:06.176Z,59.55
2018-07-04T00:05:12.144Z,59.75
2018-07-04T00:06:16.655Z,59.94
2018-07-04T00:07:23.527Z,60.03
2018-07-04T00:08:24.350Z,60.23
2018-07-04T00:09:34.402Z,60.52
2018-07-04T00:11:46.489Z,60.49
2018-07-04T00:13:53.977Z,60.39
2018-07-04T00:14:59.206Z,60.97
2018-07-04T00:16:03.003Z,61.35
2018-07-04T00:17:08.129Z,61.07
2018-07-04T00:18:18.478Z,61.07
2018-07-04T00:19:22.544Z,61.65
2018-07-04T00:20:24.330Z,62.03
2018-07-04T00:21:28.942Z,62.12
2018-07-04T00:22:42.162Z,62.32
2018-07-04T00:25:55.545Z,62.60
2018-07-04T00:27:00.010Z,62.96
2018-07-04T00:28:04.619Z,62.77
2018-07-04T00:29:19.237Z,62.57
2018-07-04T00:30:13.344Z,62.67
2018-07-04T00:31:30.035Z,62.87
2018-07-04T00:32:26.667Z,63.15
2018-07-04T00:33:32.711Z,62.77
2018-07-04T00:34:32.410Z,63.15
2018-07-04T00:35:43.787Z,62.96
2018-07-04T00:36:47.170Z,63.06
2018-07-04T00:39:04.798Z,63.44
2018-07-04T00:40:00.708Z,63.25
2018-07-04T00:41:08.292Z,63.44
2018-07-04T00:42:15.466Z,63.44
2018-07-04T00:43:19.159Z,64.40
2018-07-04T00:45:28.495Z,64.40
2018-07-04T00:46:35.927Z,64.21
2018-07-04T00:47:43.970Z,64.21
2018-07-04T00:48:53.506Z,64.02
2018-07-04T00:49:48.556Z,64.59
2018-07-04T00:51:01.294Z,64.89
2018-07-04T00:52:05.806Z,64.79
2018-07-04T00:53:12.783Z,64.86
2018-07-04T00:54:09.315Z,65.56
2018-07-04T00:55:31.018Z,65.33
2018-07-04T00:56:27.952Z,65.75
2018-07-04T00:57:33.598Z,66.01
2018-07-04T00:58:40.357Z,65.91
2018-07-04T00:59:51.934Z,66.01
2018-07-04T01:00:50.927Z,65.72
2018-07-04T01:01:58.194Z,65.81
2018-07-04T01:02:59.226Z,65.94
2018-07-04T01:04:06.094Z,66.04
2018-07-04T01:05:16.104Z,66.04
2018-07-04T01:06:18.395Z,65.46
2018-07-04T01:08:35.099Z,66.04
2018-07-04T01:09:39.559Z,65.85
2018-07-04T01:10:41.158Z,65.94
2018-07-04T01:11:48.560Z,66.24
2018-07-04T01:12:49.668Z,65.94
2018-07-04T01:13:59.607Z,66.04
2018-07-04T01:15:03.561Z,65.75
2018-07-04T01:16:06.585Z,65.94
2018-07-04T01:17:12.633Z,65.94
2018-07-04T01:18:27.692Z,66.04
2018-07-04T01:19:31.561Z,65.56
2018-07-04T01:20:35.589Z,65.75
2018-07-04T01:22:40.826Z,65.56
2018-07-04T01:23:50.459Z,65.56
2018-07-04T01:24:53.234Z,66.07
2018-07-04T01:26:05.219Z,66.14
2018-07-04T01:28:13.116Z,65.94
2018-07-04T01:29:22.340Z,65.85
2018-07-04T01:30:25.111Z,66.24
2018-07-04T01:31:23.888Z,65.75
2018-07-04T01:33:38.340Z,66.42
2018-07-04T01:34:41.215Z,66.14
2018-07-04T01:35:43.373Z,66.42
2018-07-04T01:36:50.567Z,66.42
2018-07-04T01:38:06.329Z,66.24
2018-07-04T01:39:05.204Z,66.62
2018-07-04T01:40:10.126Z,66.81
2018-07-04T01:41:19.661Z,66.81
2018-07-04T01:44:37.701Z,66.91
2018-07-04T01:45:39.960Z,67.19
2018-07-04T01:46:41.809Z,67.58
2018-07-04T01:47:47.857Z,67.19
2018-07-04T01:48:54.827Z,67.10
2018-07-04T01:49:57.804Z,68.06
2018-07-04T01:51:11.838Z,68.54
2018-07-04T01:52:12.051Z,68.44
2018-07-04T01:53:14.207Z,68.41
2018-07-04T01:54:15.035Z,67.55
2018-07-04T01:55:22.926Z,68.13
2018-07-04T01:56:36.756Z,67.65
2018-07-04T01:57:40.245Z,67.35
2018-07-04T01:58:46.293Z,67.07
2018-07-04T01:59:42.614Z,67.16
2018-07-04T02:00:52.711Z,66.88
2018-07-04T02:02:01.059Z,67.45
2018-07-04T02:03:04.957Z,66.97
2018-07-04T02:04:10.391Z,67.16
2018-07-04T02:05:14.576Z,67.16
2018-07-04T02:06:19.825Z,66.97
2018-07-04T02:07:28.434Z,67.16
2018-07-04T02:08:32.231Z,67.26
2018-07-04T02:09:34.489Z,67.35
2018-07-04T02:10:37.576Z,67.16
2018-07-04T02:11:46.186Z,67.16
2018-07-04T02:13:54.719Z,68.03
2018-07-04T02:16:14.578Z,67.74
2018-07-04T02:17:13.858Z,68.41
2018-07-04T02:18:19.191Z,68.41
2018-07-04T02:19:27.901Z,68.80
2018-07-04T02:20:40.606Z,68.99
2018-07-04T02:21:36.210Z,68.70
2018-07-04T02:22:43.078Z,68.80
2018-07-04T02:23:43.581Z,68.80
2018-07-04T02:24:51.924Z,68.51
2018-07-04T02:26:03.182Z,68.03
2018-07-04T02:27:10.550Z,67.93
2018-07-04T02:28:12.909Z,68.13
2018-07-04T02:30:29.207Z,68.41
2018-07-04T02:31:36.280Z,68.32
2018-07-04T02:33:42.434Z,68.13
2018-07-04T02:34:46.027Z,67.93
2018-07-04T02:35:51.360Z,68.03
2018-07-04T02:36:50.552Z,68.41
2018-07-04T02:37:58.538Z,68.41
2018-07-04T02:39:09.605Z,68.41
2018-07-04T02:40:07.052Z,68.90
2018-07-04T02:41:19.043Z,69.09
2018-07-04T02:43:31.653Z,69.67
2018-07-04T02:44:36.674Z,69.47
2018-07-04T02:46:47.847Z,70.05
2018-07-04T02:47:43.144Z,69.76
2018-07-04T02:49:05.589Z,69.57
2018-07-04T02:50:00.371Z,69.57
2018-07-04T02:51:07.434Z,69.76
2018-07-04T02:52:12.237Z,69.57
2018-07-04T02:53:28.748Z,69.47
2018-07-04T02:54:21.892Z,69.38
2018-07-04T02:55:26.201Z,69.95
2018-07-04T02:56:35.013Z,70.05
2018-07-04T02:58:46.701Z,70.34
2018-07-04T02:59:48.758Z,70.15
2018-07-04T03:00:57.162Z,69.67
2018-07-04T03:02:00.751Z,69.76
2018-07-04T03:03:02.704Z,69.57
2018-07-04T03:04:25.339Z,69.57
2018-07-04T03:05:17.359Z,69.67
2018-07-04T03:06:22.690Z,69.28
2018-07-04T03:07:25.360Z,69.28
2018-07-04T03:08:41.145Z,68.60
2018-07-04T03:09:42.167Z,68.03
2018-07-04T03:10:40.638Z,67.26
2018-07-04T03:12:55.295Z,68.41
2018-07-04T03:14:00.431Z,68.32
2018-07-04T03:15:19.252Z,68.41
2018-07-04T03:16:13.599Z,68.13
2018-07-04T03:17:21.845Z,68.03
2018-07-04T03:19:33.224Z,68.22
2018-07-04T03:20:38.659Z,68.03
2018-07-04T03:21:42.598Z,68.32
2018-07-04T03:22:49.731Z,68.32
2018-07-04T03:24:03.768Z,67.74
2018-07-04T03:25:05.107Z,67.19
2018-07-04T03:26:07.365Z,67.19
2018-07-04T03:27:07.891Z,67.45
2018-07-04T03:28:27.450Z,67.07
2018-07-04T03:29:22.541Z,67.10
2018-07-04T03:30:30.534Z,67.39
2018-07-04T03:31:38.638Z,67.49
2018-07-04T03:32:36.795Z,68.26
2018-07-04T03:33:40.078Z,67.10
2018-07-04T03:34:45.821Z,67.19
2018-07-04T03:35:53.200Z,67.19
2018-07-04T03:36:58.053Z,68.22
2018-07-04T03:38:06.218Z,67.87
2018-07-04T03:39:06.225Z,67.07
2018-07-04T03:40:28.351Z,66.97
2018-07-04T03:42:28.364Z,68.13
2018-07-04T03:43:27.264Z,68.32
2018-07-04T03:44:35.239Z,69.28
2018-07-04T03:47:51.233Z,68.60
2018-07-04T03:48:58.759Z,68.22
2018-07-04T03:50:02.621Z,66.97
2018-07-04T03:51:23.610Z,67.16
2018-07-04T03:52:15.938Z,66.97
2018-07-04T03:53:24.342Z,68.22
2018-07-04T03:54:28.453Z,68.03
2018-07-04T03:55:33.613Z,67.16
2018-07-04T03:56:34.708Z,67.26
2018-07-04T03:57:43.619Z,66.68
2018-07-04T03:58:56.533Z,66.30
2018-07-04T03:59:57.050Z,66.39
2018-07-04T04:01:10.675Z,66.49
2018-07-04T04:02:01.620Z,65.91
2018-07-04T04:03:13.865Z,66.10
2018-07-04T04:04:11.208Z,66.49
2018-07-04T04:07:35.906Z,66.01
2018-07-04T04:08:41.750Z,65.81
2018-07-04T04:09:42.990Z,65.24
2018-07-04T04:11:57.617Z,65.81
2018-07-04T04:13:01.030Z,65.91
2018-07-04T04:14:09.246Z,65.14
2018-07-04T04:15:18.245Z,65.14
2018-07-04T04:16:15.389Z,65.24
2018-07-04T04:18:25.618Z,65.81
2018-07-04T04:19:27.386Z,65.81
2018-07-04T04:20:43.368Z,65.72
2018-07-04T04:21:43.783Z,65.91
2018-07-04T04:22:54.952Z,66.49
2018-07-04T04:23:55.061Z,66.01
2018-07-04T04:24:58.345Z,65.66
2018-07-04T04:26:08.592Z,66.10
2018-07-04T04:27:16.625Z,66.01
2018-07-04T04:28:25.604Z,66.01
2018-07-04T04:29:27.663Z,65.91
2018-07-04T04:30:33.419Z,66.39
2018-07-04T04:32:39.762Z,66.97
2018-07-04T04:33:49.350Z,66.39
2018-07-04T04:34:44.386Z,66.42
2018-07-04T04:35:58.224Z,66.42
2018-07-04T04:37:01.733Z,66.14
2018-07-04T04:38:04.372Z,66.81
2018-07-04T04:39:12.983Z,66.91
2018-07-04T04:41:32.553Z,66.71
2018-07-04T04:42:40.549Z,66.42
2018-07-04T04:43:29.801Z,66.62
2018-07-04T04:44:47.524Z,65.85
2018-07-04T04:45:45.995Z,66.14
2018-07-04T04:46:53.886Z,65.27
2018-07-04T04:47:51.230Z,65.56
2018-07-04T04:49:11.209Z,66.24
2018-07-04T04:50:18.075Z,66.81
2018-07-04T04:51:18.182Z,66.14
2018-07-04T04:52:21.262Z,64.98
2018-07-04T04:54:34.791Z,65.37
2018-07-04T04:55:33.303Z,65.66
2018-07-04T04:56:38.630Z,66.04
2018-07-04T04:57:47.428Z,66.04
2018-07-04T04:58:49.563Z,65.85
2018-07-04T04:59:56.227Z,64.79
2018-07-04T05:01:06.630Z,64.31
2018-07-04T05:02:15.288Z,63.92
2018-07-04T05:03:20.243Z,64.79
2018-07-04T05:04:20.113Z,64.50
2018-07-04T05:05:26.572Z,64.31
2018-07-04T05:06:27.704Z,64.59
2018-07-04T05:07:35.702Z,64.89
2018-07-04T05:08:41.133Z,65.88
2018-07-04T05:09:48.719Z,66.71
2018-07-04T05:10:56.634Z,67.77
2018-07-04T05:12:02.865Z,67.97
2018-07-04T05:13:01.334Z,68.74
2018-07-04T05:14:15.881Z,69.12
2018-07-04T05:15:16.604Z,68.06
2018-07-04T05:16:21.526Z,68.35
2018-07-04T05:17:34.223Z,68.44
2018-07-04T05:18:36.685Z,68.16
2018-07-04T05:20:48.424Z,69.15
2018-07-04T05:21:52.700Z,68.00
2018-07-04T05:22:52.201Z,66.75
2018-07-04T05:24:00.639Z,67.23
2018-07-04T05:25:04.638Z,67.42
2018-07-04T05:26:05.825Z,65.20
2018-07-04T05:27:15.639Z,63.85
2018-07-04T05:28:18.073Z,64.05
2018-07-04T05:30:27.868Z,64.25
2018-07-04T05:31:46.923Z,64.25
2018-07-04T05:32:47.134Z,64.25
2018-07-04T05:33:49.393Z,63.18
2018-07-04T05:34:59.025Z,63.76
2018-07-04T05:36:01.826Z,64.25
2018-07-04T05:37:03.544Z,62.70
2018-07-04T05:38:06.623Z,63.09
2018-07-04T05:39:20.770Z,62.99
2018-07-04T05:40:24.865Z,62.41
2018-07-04T05:41:40.643Z,61.83
2018-07-04T05:42:34.503Z,61.74
2018-07-04T05:43:41.707Z,62.32
2018-07-04T05:44:49.263Z,63.28
2018-07-04T05:45:46.816Z,63.31
2018-07-04T05:46:58.901Z,63.41
2018-07-04T05:48:17.553Z,63.31
2018-07-04T05:49:12.842Z,63.41
2018-07-04T05:50:12.236Z,63.21
2018-07-04T05:51:24.739Z,62.93
2018-07-04T05:53:28.332Z,62.45
2018-07-04T05:54:37.350Z,61.48
2018-07-04T05:55:43.500Z,62.45
2018-07-04T05:56:44.634Z,61.77
2018-07-04T05:59:01.033Z,62.45
2018-07-04T06:00:06.979Z,62.45
2018-07-04T06:01:04.842Z,62.25
2018-07-04T06:02:32.389Z,62.45
2018-07-04T06:03:17.445Z,62.93
2018-07-04T06:04:19.089Z,62.45
2018-07-04T06:05:35.692Z,62.15
2018-07-04T06:06:39.480Z,61.68
2018-07-04T06:08:49.836Z,61.68
2018-07-04T06:09:58.444Z,62.45
2018-07-04T06:10:58.254Z,62.73
2018-07-04T06:12:08.909Z,63.02
2018-07-04T06:13:15.771Z,61.99
2018-07-04T06:14:14.762Z,61.77
2018-07-04T06:15:27.971Z,61.99
2018-07-04T06:17:39.579Z,63.06
2018-07-04T06:18:33.729Z,62.28
2018-07-04T06:19:40.086Z,61.51
2018-07-04T06:20:46.742Z,61.32
2018-07-04T06:21:57.098Z,61.13
2018-07-04T06:23:58.026Z,60.45
2018-07-04T06:25:14.934Z,60.64
2018-07-04T06:26:14.835Z,61.13
2018-07-04T06:27:27.949Z,60.48
2018-07-04T06:28:32.053Z,60.38
2018-07-04T06:29:28.373Z,60.38
2018-07-04T06:30:48.040Z,60.48
2018-07-04T06:32:02.486Z,60.58
2018-07-04T06:32:58.604Z,60.86
2018-07-04T06:34:06.302Z,60.10
2018-07-04T06:37:18.186Z,60.00
2018-07-04T06:38:27.512Z,60.10
2018-07-04T06:39:25.986Z,60.19
2018-07-04T06:40:33.977Z,60.38
2018-07-04T06:41:42.176Z,60.19
2018-07-04T06:42:34.296Z,60.00
2018-07-04T06:45:00.040Z,59.71
2018-07-04T06:47:08.937Z,60.10
2018-07-04T06:48:03.003Z,59.80
2018-07-04T06:49:21.033Z,60.00
2018-07-04T06:50:20.118Z,60.10
2018-07-04T06:53:36.112Z,59.32
2018-07-04T06:54:50.057Z,58.65
2018-07-04T06:55:41.451Z,58.65
2018-07-04T06:56:58.558Z,58.45
2018-07-04T06:58:00.512Z,58.45
2018-07-04T06:59:09.126Z,59.13
2018-07-04T07:00:12.198Z,58.84
2018-07-04T07:01:12.718Z,58.94
2018-07-04T07:05:43.261Z,60.13
2018-07-04T07:07:39.800Z,58.87
2018-07-04T07:08:57.207Z,58.97
2018-07-04T07:09:59.160Z,59.06
2018-07-04T07:11:09.304Z,60.13
2018-07-04T07:13:24.371Z,60.61
2018-07-04T07:14:11.781Z,60.31
2018-07-04T07:15:30.222Z,60.31
2018-07-04T07:16:48.763Z,60.61
2018-07-04T07:18:40.686Z,60.31
2018-07-04T07:19:53.186Z,60.51
2018-07-04T07:21:07.972Z,60.16
2018-07-04T07:22:21.874Z,59.86
2018-07-04T07:23:09.282Z,59.77
2018-07-04T07:24:13.899Z,59.77
2018-07-04T07:25:23.941Z,59.19
2018-07-04T07:26:31.011Z,59.38
2018-07-04T07:27:40.249Z,59.09
2018-07-04T07:29:53.971Z,59.38
2018-07-04T07:31:11.794Z,59.12
2018-07-04T07:32:25.728Z,59.02
2018-07-04T07:33:00.753Z,59.12
2018-07-04T07:34:22.663Z,59.22
2018-07-04T07:35:22.678Z,59.22
2018-07-04T07:36:02.006Z,58.93
2018-07-04T07:37:44.091Z,59.12
2018-07-04T07:39:32.534Z,59.89
2018-07-04T07:40:44.624Z,58.73
2018-07-04T07:42:35.832Z,57.48
2018-07-04T07:43:56.317Z,57.79
2018-07-04T07:45:30.835Z,57.51
2018-07-04T07:46:11.183Z,57.99
2018-07-04T07:48:26.143Z,57.60
2018-07-04T07:49:21.031Z,57.41
2018-07-04T07:50:24.110Z,57.99
2018-07-04T07:51:35.074Z,58.18
2018-07-04T07:52:48.290Z,58.57
2018-07-04T07:53:58.744Z,58.67
2018-07-04T07:54:39.804Z,58.28
2018-07-04T07:57:06.443Z,57.54
2018-07-04T07:58:13.513Z,57.63
2018-07-04T07:59:09.640Z,56.95
2018-07-04T08:00:27.760Z,56.76
2018-07-04T08:02:22.756Z,56.86
2018-07-04T08:03:29.931Z,57.73
2018-07-04T08:04:26.355Z,57.24
2018-07-04T08:05:42.030Z,57.44
2018-07-04T08:06:42.757Z,57.18
2018-07-04T08:07:41.749Z,57.08
2018-07-04T08:08:53.108Z,56.98
2018-07-04T08:09:48.611Z,56.88
2018-07-04T08:11:02.238Z,56.70
2018-07-04T08:12:00.296Z,56.40
2018-07-04T08:13:17.407Z,55.92
2018-07-04T08:14:13.419Z,56.02
2018-07-04T08:15:21.723Z,55.82
2018-07-04T08:16:33.710Z,55.46
2018-07-04T08:17:34.532Z,55.66
2018-07-04T08:18:36.996Z,55.46
2018-07-04T08:20:46.943Z,54.30
2018-07-04T08:21:48.998Z,54.69
2018-07-04T08:22:56.072Z,54.30
2018-07-04T08:24:08.366Z,55.10
2018-07-04T08:26:17.227Z,55.10
2018-07-04T08:27:34.606Z,55.20
2018-07-04T08:28:43.517Z,54.33
2018-07-04T08:29:37.685Z,53.94
2018-07-04T08:30:30.627Z,54.13
2018-07-04T08:32:55.831Z,54.16
2018-07-04T08:34:00.855Z,53.94
2018-07-04T08:34:59.737Z,53.77
2018-07-04T08:37:09.171Z,54.26
2018-07-04T08:38:11.225Z,54.45
2018-07-04T08:39:35.398Z,54.35
2018-07-04T08:40:32.742Z,54.74
2018-07-04T08:41:49.748Z,53.70
2018-07-04T08:43:49.532Z,52.73
2018-07-04T08:45:01.958Z,52.93
2018-07-04T08:46:02.576Z,53.22
2018-07-04T08:48:10.270Z,52.34
2018-07-04T08:49:16.113Z,52.93
2018-07-04T08:51:23.192Z,52.37
2018-07-04T08:52:38.469Z,52.95
2018-07-04T08:53:34.573Z,53.24
2018-07-04T08:56:51.697Z,51.89
2018-07-04T08:58:03.478Z,51.69
2018-07-04T08:59:09.934Z,52.18
2018-07-04T09:01:12.004Z,51.91
2018-07-04T09:02:16.305Z,52.40
2018-07-04T09:03:27.784Z,52.30
2018-07-04T09:04:21.958Z,52.30
2018-07-04T09:05:43.564Z,52.50
2018-07-04T09:06:38.246Z,52.40
2018-07-04T09:07:47.163Z,52.52
2018-07-04T09:08:45.221Z,52.13
2018-07-04T09:10:05.914Z,52.03
2018-07-04T09:10:51.481Z,52.03
2018-07-04T09:12:03.880Z,51.93
2018-07-04T09:13:05.116Z,51.84
2018-07-04T09:14:21.813Z,52.13
2018-07-04T09:17:30.434Z,52.06
2018-07-04T09:18:39.146Z,51.38
2018-07-04T09:19:57.486Z,52.35
2018-07-04T09:21:45.313Z,51.28
2018-07-04T09:23:18.494Z,49.44
2018-07-04T09:24:16.353Z,49.37
2018-07-04T09:25:22.194Z,48.78
2018-07-04T09:26:35.922Z,49.76
2018-07-04T09:27:36.863Z,48.97
2018-07-04T09:28:40.544Z,48.49
2018-07-04T09:29:51.201Z,48.39
2018-07-04T09:31:02.269Z,48.39
2018-07-04T09:32:08.010Z,48.10
2018-07-04T09:32:54.604Z,48.80
2018-07-04T09:34:11.512Z,48.88
2018-07-04T09:35:17.961Z,48.88
2018-07-04T09:36:21.041Z,48.97
2018-07-04T09:37:24.736Z,48.80
2018-07-04T09:38:28.372Z,47.83
2018-07-04T09:39:31.607Z,48.41
2018-07-04T09:40:40.728Z,47.34
2018-07-04T09:41:40.632Z,48.41
2018-07-04T09:42:56.103Z,48.03
2018-07-04T09:43:57.159Z,48.03
2018-07-04T09:45:07.381Z,47.44
2018-07-04T09:46:04.930Z,47.47
2018-07-04T09:50:30.454Z,47.56
2018-07-04T09:51:50.722Z,48.05
2018-07-04T09:52:43.065Z,47.76
2018-07-04T09:53:49.725Z,47.56
2018-07-04T09:54:46.763Z,47.47
2018-07-04T09:57:03.672Z,47.49
2018-07-04T09:58:13.510Z,47.10
2018-07-04T09:59:17.103Z,47.20
2018-07-04T10:00:20.384Z,46.91
2018-07-04T10:01:23.260Z,47.00
2018-07-04T10:02:36.267Z,47.32
2018-07-04T10:03:41.808Z,46.54
2018-07-04T10:09:12.729Z,45.47
2018-07-04T10:11:13.188Z,45.49
2018-07-04T10:13:28.736Z,46.08
2018-07-04T10:14:36.147Z,46.25
2018-07-04T10:15:40.147Z,45.59
2018-07-04T10:16:46.809Z,45.10
2018-07-04T10:17:50.402Z,45.10
2018-07-04T10:19:57.731Z,44.32
2018-07-04T10:21:07.934Z,44.52
2018-07-04T10:22:11.941Z,44.32
2018-07-04T10:23:16.137Z,44.42
2018-07-04T10:24:22.392Z,44.52
2018-07-04T10:25:28.755Z,43.64
2018-07-04T10:26:32.655Z,44.52
2018-07-04T10:27:40.536Z,43.25
2018-07-04T10:28:43.820Z,43.15
2018-07-04T10:29:53.487Z,42.98
2018-07-04T10:30:59.813Z,42.98
2018-07-04T10:33:04.232Z,43.00
2018-07-04T10:34:11.809Z,42.61
2018-07-04T10:35:20.418Z,41.93
2018-07-04T10:37:33.641Z,42.83
2018-07-04T10:38:34.876Z,42.54
2018-07-04T10:39:37.955Z,41.66
2018-07-04T10:40:46.156Z,41.56
2018-07-04T10:41:45.239Z,41.75
2018-07-04T10:42:53.438Z,41.95
2018-07-04T10:44:01.738Z,42.05
2018-07-04T10:45:15.574Z,42.24
2018-07-04T10:46:19.776Z,42.34
2018-07-04T10:47:25.825Z,41.95
2018-07-04T10:49:28.398Z,40.97
2018-07-04T10:50:41.744Z,40.68
2018-07-04T10:52:55.657Z,40.80
2018-07-04T10:53:48.014Z,41.09
2018-07-04T10:54:59.468Z,41.67
2018-07-04T10:56:03.995Z,43.14
2018-07-04T10:57:14.323Z,42.46
2018-07-04T10:59:26.315Z,44.41
2018-07-04T11:00:22.541Z,43.43
2018-07-04T11:01:32.779Z,41.87
2018-07-04T11:02:38.729Z,42.26
2018-07-04T11:04:51.949Z,42.77
2018-07-04T11:05:55.012Z,40.23
2018-07-04T11:06:59.438Z,38.09
2018-07-04T11:08:27.402Z,38.18
2018-07-04T11:09:05.186Z,38.10
2018-07-04T11:10:15.641Z,36.83
2018-07-04T11:11:22.636Z,36.63
2018-07-04T11:13:32.776Z,36.83
2018-07-04T11:14:37.173Z,38.49
2018-07-04T11:15:44.243Z,38.89
2018-07-04T11:16:45.334Z,39.98
2018-07-04T11:17:55.112Z,38.22
2018-07-04T11:18:58.756Z,36.85
2018-07-04T11:21:10.899Z,37.34
2018-07-04T11:22:27.497Z,38.12
2018-07-04T11:23:28.014Z,38.63
2018-07-04T11:25:35.708Z,36.18
2018-07-04T11:26:45.588Z,34.03
2018-07-04T11:27:48.532Z,35.01
2018-07-04T11:29:49.048Z,35.28
2018-07-04T11:33:12.520Z,35.48
2018-07-04T11:34:15.903Z,36.65
2018-07-04T11:35:27.491Z,36.44
2018-07-04T11:36:30.711Z,36.54
2018-07-04T11:37:38.452Z,36.54
2018-07-04T11:38:42.624Z,36.05
2018-07-04T11:39:41.026Z,36.82
2018-07-04T11:40:59.671Z,36.62
2018-07-04T11:41:52.713Z,37.11
2018-07-04T11:42:56.202Z,36.82
2018-07-04T11:44:08.907Z,36.80
2018-07-04T11:45:10.857Z,36.41
2018-07-04T11:46:13.126Z,36.80
2018-07-04T11:47:46.203Z,36.49
2018-07-04T11:48:33.305Z,36.68
2018-07-04T11:49:32.270Z,36.49
2018-07-04T11:50:41.715Z,36.98
2018-07-04T11:51:53.499Z,36.78
2018-07-04T11:52:53.811Z,36.78
2018-07-04T11:54:00.782Z,37.45
2018-07-04T11:56:06.837Z,39.78
2018-07-04T11:57:09.319Z,40.27
2018-07-04T11:58:36.454Z,40.56
2018-07-04T11:59:22.832Z,41.15
2018-07-04T12:00:30.212Z,41.25
2018-07-04T12:01:38.654Z,41.35
2018-07-04T12:02:39.033Z,41.73
2018-07-04T12:03:44.568Z,41.75
2018-07-04T12:04:54.302Z,41.75
2018-07-04T12:06:02.921Z,42.44
2018-07-04T12:07:14.489Z,40.48
2018-07-04T12:08:12.149Z,41.66
2018-07-04T12:09:16.545Z,40.70
2018-07-04T12:10:24.853Z,43.24
2018-07-04T12:11:31.770Z,42.36
2018-07-04T12:12:38.691Z,40.01
2018-07-04T12:13:35.632Z,41.28
2018-07-04T12:15:58.175Z,42.87
2018-07-04T12:16:51.723Z,39.94
2018-07-04T12:17:51.937Z,39.94
2018-07-04T12:19:04.009Z,36.91
2018-07-04T12:21:14.283Z,38.57
2018-07-04T12:22:20.491Z,38.96
2018-07-04T12:24:27.406Z,38.18
2018-07-04T12:25:34.997Z,37.11
2018-07-04T12:26:44.879Z,36.82
2018-07-04T12:27:47.803Z,37.87
2018-07-04T12:28:57.542Z,37.29
2018-07-04T12:29:58.466Z,36.41
2018-07-04T12:31:13.220Z,37.29
2018-07-04T12:32:10.365Z,36.60
2018-07-04T12:33:21.436Z,36.80
2018-07-04T12:34:21.534Z,37.07
2018-07-04T12:35:28.197Z,36.68
2018-07-04T12:36:31.486Z,37.46
2018-07-04T12:37:41.014Z,36.78
2018-07-04T12:39:06.776Z,36.58
2018-07-04T12:39:43.658Z,38.34
2018-07-04T12:40:53.013Z,39.78
2018-07-04T12:42:05.618Z,40.37
2018-07-04T12:43:06.927Z,40.56
2018-07-04T12:45:22.331Z,39.59
2018-07-04T12:46:18.237Z,40.17
2018-07-04T12:47:26.240Z,40.27
2018-07-04T12:48:27.892Z,40.45
2018-07-04T12:49:36.895Z,39.47
2018-07-04T12:50:45.707Z,39.37
2018-07-04T12:51:51.550Z,39.96
2018-07-04T12:53:14.187Z,39.57
2018-07-04T12:53:55.518Z,40.73
2018-07-04T12:55:07.658Z,40.72
2018-07-04T12:56:09.511Z,41.11
2018-07-04T12:57:16.993Z,41.30
2018-07-04T12:58:30.913Z,41.20
2018-07-04T12:59:31.893Z,42.08
2018-07-04T13:00:35.126Z,41.69
2018-07-04T13:01:43.334Z,42.57
2018-07-04T13:02:44.787Z,42.96
2018-07-04T13:04:56.569Z,42.18
2018-07-04T13:06:03.322Z,42.28
2018-07-04T13:07:06.296Z,42.47
2018-07-04T13:08:19.006Z,42.47
2018-07-04T13:09:24.844Z,42.45
2018-07-04T13:10:36.629Z,41.86
2018-07-04T13:11:33.458Z,42.08
2018-07-04T13:12:42.187Z,41.96
2018-07-04T13:13:40.745Z,41.19
2018-07-04T13:14:41.879Z,40.99
2018-07-04T13:15:51.794Z,41.96
2018-07-04T13:16:56.738Z,42.25
2018-07-04T13:18:01.355Z,42.55
2018-07-04T13:19:19.167Z,42.63
2018-07-04T13:20:21.132Z,43.40
2018-07-04T13:21:18.272Z,43.11
2018-07-04T13:23:25.248Z,44.38
2018-07-04T13:24:42.559Z,43.99
2018-07-04T13:26:38.797Z,44.38
2018-07-04T13:27:53.544Z,45.06
2018-07-04T13:30:11.603Z,44.38
2018-07-04T13:31:14.857Z,43.79
2018-07-04T13:32:10.637Z,44.38
2018-07-04T13:33:29.792Z,43.30
2018-07-04T13:34:15.795Z,44.18
2018-07-04T13:35:31.071Z,45.15
2018-07-04T13:36:35.800Z,44.38
2018-07-04T13:37:43.678Z,44.67
2018-07-04T13:38:48.287Z,44.76
2018-07-04T13:39:57.715Z,44.67
2018-07-04T13:40:54.249Z,46.13
2018-07-04T13:41:57.527Z,44.69
2018-07-04T13:43:05.848Z,44.49
2018-07-04T13:44:08.520Z,44.40
2018-07-04T13:45:30.108Z,44.20
2018-07-04T13:47:31.965Z,44.32
2018-07-04T13:49:40.695Z,44.62
2018-07-04T13:50:48.798Z,45.00
2018-07-04T13:51:48.682Z,45.39
2018-07-04T13:53:00.978Z,45.51
2018-07-04T13:54:06.317Z,46.00
2018-07-04T13:55:08.978Z,46.39
2018-07-04T13:56:12.160Z,46.69
2018-07-04T13:57:21.594Z,44.64
2018-07-04T13:58:35.120Z,43.19
2018-07-04T13:59:35.732Z,43.00
2018-07-04T14:01:43.017Z,44.27
2018-07-04T14:02:44.173Z,43.00
2018-07-04T14:03:52.062Z,43.29
2018-07-04T14:05:02.390Z,45.15
2018-07-04T14:06:08.259Z,44.58
2018-07-04T14:07:06.704Z,44.48
2018-07-04T14:08:17.668Z,43.90
2018-07-04T14:10:26.902Z,43.41
2018-07-04T14:11:37.762Z,45.65
2018-07-04T14:13:45.248Z,45.56
2018-07-04T14:14:52.322Z,44.29
2018-07-04T14:15:55.811Z,43.41
2018-07-04T14:16:56.812Z,44.09
2018-07-04T14:17:57.057Z,43.51
2018-07-04T14:19:14.774Z,43.39
2018-07-04T14:20:19.402Z,44.37
2018-07-04T14:22:31.084Z,45.44
2018-07-04T14:23:35.809Z,47.00
2018-07-04T14:24:38.257Z,46.31
2018-07-04T14:25:45.025Z,45.56
2018-07-04T14:26:54.660Z,45.25
2018-07-04T14:27:58.975Z,45.92
2018-07-04T14:30:08.091Z,44.66
2018-07-04T14:31:17.216Z,44.37
2018-07-04T14:33:29.206Z,45.83
2018-07-04T14:34:32.591Z,45.92
2018-07-04T14:36:48.486Z,46.70
2018-07-04T14:37:43.977Z,47.00
2018-07-04T14:38:53.953Z,45.92
2018-07-04T14:41:02.742Z,47.39
2018-07-04T14:42:17.594Z,46.88
2018-07-04T14:43:12.888Z,48.44
2018-07-04T14:44:08.801Z,48.46
2018-07-04T14:45:26.931Z,46.97
2018-07-04T14:46:29.907Z,46.49
2018-07-04T14:47:37.800Z,46.49
2018-07-04T14:48:35.767Z,46.49
2018-07-04T14:49:47.339Z,46.69
2018-07-04T14:50:54.818Z,46.49
2018-07-04T14:51:56.156Z,46.88
2018-07-04T14:53:10.398Z,46.78
2018-07-04T14:54:14.296Z,47.66
2018-07-04T14:55:15.633Z,47.66
2018-07-04T14:56:13.182Z,47.95
2018-07-04T14:57:27.533Z,47.95
2018-07-04T14:59:43.316Z,48.54
2018-07-04T15:00:45.984Z,48.54
2018-07-04T15:01:47.009Z,47.75
2018-07-04T15:02:48.142Z,47.95
2018-07-04T15:03:58.492Z,48.05
2018-07-04T15:04:56.347Z,48.24
2018-07-04T15:06:02.601Z,48.05
2018-07-04T15:07:19.504Z,48.14
2018-07-04T15:09:24.822Z,49.12
2018-07-04T15:10:34.689Z,47.92
2018-07-04T15:11:45.234Z,48.34
2018-07-04T15:12:38.175Z,49.10
2018-07-04T15:13:55.385Z,48.05
2018-07-04T15:15:00.616Z,48.05
2018-07-04T15:18:03.502Z,48.34
2018-07-04T15:19:17.845Z,49.41
2018-07-04T15:20:28.914Z,49.32
2018-07-04T15:21:25.826Z,48.93
2018-07-04T15:22:27.286Z,47.46
2018-07-04T15:23:32.926Z,47.56
2018-07-04T15:24:41.242Z,49.32
2018-07-04T15:25:47.992Z,49.22
2018-07-04T15:26:51.787Z,50.68
2018-07-04T15:27:57.222Z,49.61
2018-07-04T15:29:05.012Z,48.63
2018-07-04T15:31:16.494Z,49.41
2018-07-04T15:33:26.840Z,47.95
2018-07-04T15:34:38.530Z,48.14
2018-07-04T15:35:38.639Z,48.73
2018-07-04T15:36:46.940Z,48.93
2018-07-04T15:37:48.995Z,49.12
2018-07-04T15:40:04.993Z,49.02
2018-07-04T15:41:05.834Z,49.32
2018-07-04T15:42:14.827Z,49.51
2018-07-04T15:43:19.651Z,49.02
2018-07-04T15:44:17.504Z,48.34
2018-07-04T15:45:34.550Z,47.56
2018-07-04T15:46:29.703Z,48.05
2018-07-04T15:47:37.845Z,48.14
2018-07-04T15:49:47.233Z,47.95
2018-07-04T15:50:55.638Z,49.12
2018-07-04T15:51:59.134Z,49.41
2018-07-04T15:54:18.441Z,49.58
2018-07-04T15:55:18.705Z,49.00
2018-07-04T15:56:21.988Z,49.19
2018-07-04T15:57:27.319Z,49.49
2018-07-04T15:58:42.175Z,49.58
2018-07-04T15:59:43.644Z,49.97
2018-07-04T16:00:45.978Z,49.58
2018-07-04T16:01:53.056Z,50.56
2018-07-04T16:02:53.686Z,50.26
2018-07-04T16:03:59.925Z,50.56
2018-07-04T16:04:59.935Z,49.00
2018-07-04T16:06:21.240Z,49.00
2018-07-04T16:07:18.996Z,50.95
2018-07-04T16:08:27.804Z,50.46
2018-07-04T16:09:27.301Z,50.65
2018-07-04T16:10:40.107Z,50.65
2018-07-04T16:11:47.793Z,50.56
2018-07-04T16:13:58.354Z,49.97
2018-07-04T16:14:50.169Z,50.56
2018-07-04T16:16:03.283Z,50.46